createdAt,value
2023-05-09T00:00:30.901Z,11.65
2023-05-09T00:01:32.841Z,11.62
2023-05-09T00:02:34.937Z,11.62
2023-05-09T00:03:36.865Z,11.54
2023-05-09T00:04:39.018Z,11.58
2023-05-09T00:05:41.944Z,11.59
2023-05-09T00:06:43.836Z,11.59
2023-05-09T00:07:45.782Z,11.54
2023-05-09T00:08:47.611Z,11.54
2023-05-09T00:09:49.382Z,11.52
2023-05-09T00:10:51.302Z,11.54
2023-05-09T00:11:53.219Z,11.53
2023-05-09T00:12:55.206Z,11.53
2023-05-09T00:13:57.857Z,11.56
2023-05-09T00:14:59.952Z,11.59
2023-05-09T00:16:01.921Z,11.57
2023-05-09T00:17:04.073Z,11.59
2023-05-09T00:18:05.935Z,11.62
2023-05-09T00:19:07.797Z,11.63
2023-05-09T00:20:12.673Z,11.60
2023-05-09T00:21:14.686Z,11.48
2023-05-09T00:22:17.391Z,11.41
2023-05-09T00:23:19.219Z,11.38
2023-05-09T00:24:21.079Z,11.36
2023-05-09T00:25:22.926Z,11.36
2023-05-09T00:26:24.900Z,11.37
2023-05-09T00:27:26.812Z,11.34
2023-05-09T00:28:28.627Z,11.36
2023-05-09T00:29:30.537Z,11.41
2023-05-09T00:30:32.416Z,11.41
2023-05-09T00:31:34.485Z,11.39
2023-05-09T00:32:37.231Z,11.38
2023-05-09T00:33:39.445Z,11.40
2023-05-09T00:34:41.425Z,11.45
2023-05-09T00:35:43.383Z,11.52
2023-05-09T00:36:45.282Z,11.58
2023-05-09T00:37:47.181Z,11.55
2023-05-09T00:38:49.294Z,11.57
2023-05-09T00:39:51.165Z,11.56
2023-05-09T00:40:52.992Z,11.56
2023-05-09T00:41:56.372Z,11.60
2023-05-09T00:42:59.425Z,11.64
2023-05-09T00:44:01.278Z,11.69
2023-05-09T00:45:03.323Z,11.71
2023-05-09T00:46:05.466Z,11.68
2023-05-09T00:47:07.734Z,11.61
2023-05-09T00:48:09.697Z,11.56
2023-05-09T00:49:12.758Z,11.51
2023-05-09T00:50:15.434Z,11.51
2023-05-09T00:51:17.288Z,11.54
2023-05-09T00:52:23.508Z,11.58
2023-05-09T00:53:25.673Z,11.60
2023-05-09T00:54:27.595Z,11.62
2023-05-09T00:55:29.494Z,11.65
2023-05-09T00:56:31.586Z,11.66
2023-05-09T00:57:33.689Z,11.68
2023-05-09T00:58:35.838Z,11.65
2023-05-09T00:59:37.705Z,11.61
2023-05-09T01:00:39.618Z,11.57
2023-05-09T01:01:41.606Z,11.58
2023-05-09T01:02:45.274Z,11.52
2023-05-09T01:03:47.754Z,11.47
2023-05-09T01:04:49.812Z,11.48
2023-05-09T01:05:51.673Z,11.50
2023-05-09T01:06:53.517Z,11.52
2023-05-09T01:08:07.379Z,11.55
2023-05-09T01:09:35.655Z,11.59
2023-05-09T01:10:50.197Z,11.60
2023-05-09T01:12:12.950Z,11.54
2023-05-09T01:13:14.787Z,11.47
2023-05-09T01:14:31.137Z,11.49
2023-05-09T01:15:51.952Z,11.50
2023-05-09T01:16:59.787Z,11.52
2023-05-09T01:18:07.247Z,11.53
2023-05-09T01:19:27.590Z,11.46
2023-05-09T01:20:36.612Z,11.45
2023-05-09T01:21:41.393Z,11.44
2023-05-09T01:22:48.945Z,11.39
2023-05-09T01:24:09.599Z,11.20
2023-05-09T01:25:11.496Z,11.13
2023-05-09T01:26:19.263Z,11.06
2023-05-09T01:27:23.619Z,11.02
2023-05-09T01:28:31.595Z,11.01
2023-05-09T01:29:33.391Z,11.00
2023-05-09T01:30:37.671Z,11.07
2023-05-09T01:31:41.561Z,11.13
2023-05-09T01:32:44.213Z,11.13
2023-05-09T01:33:47.276Z,11.14
2023-05-09T01:34:50.489Z,11.15
2023-05-09T01:35:56.134Z,11.11
2023-05-09T01:37:01.028Z,11.09
2023-05-09T01:38:05.758Z,11.01
2023-05-09T01:39:09.357Z,11.01
2023-05-09T01:40:14.240Z,11.01
2023-05-09T01:41:17.396Z,10.99
2023-05-09T01:42:21.009Z,11.00
2023-05-09T01:43:23.673Z,11.04
2023-05-09T01:44:25.833Z,11.04
2023-05-09T01:45:28.458Z,10.96
2023-05-09T01:46:31.001Z,10.98
2023-05-09T01:47:33.364Z,11.03
2023-05-09T01:48:36.539Z,11.06
2023-05-09T01:49:40.196Z,11.08
2023-05-09T01:50:43.744Z,11.06
2023-05-09T01:51:45.655Z,11.10
2023-05-09T01:52:49.673Z,11.11
2023-05-09T01:53:52.177Z,11.14
2023-05-09T01:54:54.748Z,11.18
2023-05-09T01:55:58.146Z,11.21
2023-05-09T01:57:00.190Z,11.24
2023-05-09T01:58:04.054Z,11.24
2023-05-09T01:59:07.858Z,11.25
2023-05-09T02:00:10.889Z,11.23
2023-05-09T02:01:15.064Z,11.22
2023-05-09T02:02:17.611Z,11.11
2023-05-09T02:03:20.458Z,11.06
2023-05-09T02:04:22.591Z,10.94
2023-05-09T02:05:26.666Z,10.93
2023-05-09T02:06:30.451Z,10.95
2023-05-09T02:07:33.079Z,10.95
2023-05-09T02:08:35.470Z,10.96
2023-05-09T02:09:37.338Z,10.99
2023-05-09T02:10:39.303Z,10.98
2023-05-09T02:11:41.201Z,11.00
2023-05-09T02:12:43.135Z,11.02
2023-05-09T02:13:45.074Z,10.98
2023-05-09T02:14:47.064Z,10.95
2023-05-09T02:15:49.217Z,10.90
2023-05-09T02:16:51.789Z,10.82
2023-05-09T02:17:53.765Z,10.82
2023-05-09T02:18:55.803Z,10.87
2023-05-09T02:19:57.698Z,10.89
2023-05-09T02:20:59.555Z,10.91
2023-05-09T02:22:01.984Z,10.89
2023-05-09T02:23:04.128Z,10.90
2023-05-09T02:24:06.331Z,10.87
2023-05-09T02:25:09.064Z,10.76
2023-05-09T02:26:11.445Z,10.75
2023-05-09T02:27:14.180Z,10.80
2023-05-09T02:28:16.815Z,10.85
2023-05-09T02:29:20.909Z,10.89
2023-05-09T02:30:28.100Z,10.86
2023-05-09T02:31:30.742Z,10.87
2023-05-09T02:32:34.180Z,10.88
2023-05-09T02:33:37.756Z,10.91
2023-05-09T02:34:40.033Z,10.95
2023-05-09T02:35:43.764Z,10.94
2023-05-09T02:36:46.005Z,10.91
2023-05-09T02:37:47.860Z,10.89
2023-05-09T02:38:49.804Z,10.78
2023-05-09T02:39:52.087Z,10.71
2023-05-09T02:40:54.083Z,10.72
2023-05-09T02:41:56.018Z,10.72
2023-05-09T02:42:58.082Z,10.72
2023-05-09T02:43:59.965Z,10.68
2023-05-09T02:45:01.814Z,10.69
2023-05-09T02:46:03.939Z,10.72
2023-05-09T02:47:06.958Z,10.74
2023-05-09T02:48:09.467Z,10.72
2023-05-09T02:49:19.519Z,10.75
2023-05-09T02:50:29.181Z,10.74
2023-05-09T02:51:31.537Z,10.64
2023-05-09T02:52:33.466Z,10.58
2023-05-09T02:53:35.362Z,10.60
2023-05-09T02:54:37.517Z,10.65
2023-05-09T02:55:39.386Z,10.60
2023-05-09T02:56:41.236Z,10.54
2023-05-09T02:57:43.172Z,10.56
2023-05-09T02:58:51.374Z,10.58
2023-05-09T02:59:53.407Z,10.61
2023-05-09T03:00:55.243Z,10.63
2023-05-09T03:01:57.320Z,10.67
2023-05-09T03:03:00.585Z,10.72
2023-05-09T03:04:02.618Z,10.73
2023-05-09T03:05:04.636Z,10.70
2023-05-09T03:06:08.216Z,10.69
2023-05-09T03:07:10.057Z,10.66
2023-05-09T03:08:11.915Z,10.67
2023-05-09T03:09:13.730Z,10.70
2023-05-09T03:10:15.783Z,10.74
2023-05-09T03:11:17.677Z,10.74
2023-05-09T03:12:19.489Z,10.68
2023-05-09T03:13:21.590Z,10.60
2023-05-09T03:14:23.750Z,10.50
2023-05-09T03:15:25.673Z,10.44
2023-05-09T03:16:27.435Z,10.33
2023-05-09T03:17:29.355Z,10.20
2023-05-09T03:18:31.290Z,10.23
2023-05-09T03:19:33.272Z,10.20
2023-05-09T03:20:35.244Z,10.19
2023-05-09T03:21:37.177Z,10.18
2023-05-09T03:22:39.603Z,10.19
2023-05-09T03:23:41.682Z,10.20
2023-05-09T03:24:44.251Z,10.12
2023-05-09T03:25:46.233Z,10.09
2023-05-09T03:26:48.085Z,10.10
2023-05-09T03:27:49.934Z,10.08
2023-05-09T03:28:51.910Z,10.03
2023-05-09T03:29:53.782Z,10.00
2023-05-09T03:30:55.748Z,10.06
2023-05-09T03:31:57.628Z,10.11
2023-05-09T03:32:59.527Z,10.13
2023-05-09T03:34:01.392Z,10.17
2023-05-09T03:35:03.218Z,10.24
2023-05-09T03:36:05.908Z,10.32
2023-05-09T03:37:07.829Z,10.37
2023-05-09T03:38:10.287Z,10.39
2023-05-09T03:39:12.108Z,10.40
2023-05-09T03:40:14.039Z,10.35
2023-05-09T03:41:17.428Z,10.33
2023-05-09T03:42:19.351Z,10.36
2023-05-09T03:43:21.143Z,10.40
2023-05-09T03:44:22.992Z,10.44
2023-05-09T03:45:24.879Z,10.45
2023-05-09T03:46:26.873Z,10.46
2023-05-09T03:47:28.818Z,10.44
2023-05-09T03:48:30.798Z,10.44
2023-05-09T03:49:32.648Z,10.47
2023-05-09T03:50:34.472Z,10.49
2023-05-09T03:51:37.102Z,10.46
2023-05-09T03:52:39.106Z,10.38
2023-05-09T03:53:41.038Z,10.40
2023-05-09T03:54:42.899Z,10.38
2023-05-09T03:55:44.772Z,10.39
2023-05-09T03:56:46.634Z,10.42
2023-05-09T03:57:48.491Z,10.47
2023-05-09T03:58:50.353Z,10.48
2023-05-09T03:59:52.237Z,10.37
2023-05-09T04:00:54.172Z,10.32
2023-05-09T04:01:56.319Z,10.40
2023-05-09T04:02:58.257Z,10.45
2023-05-09T04:04:00.607Z,10.50
2023-05-09T04:05:02.474Z,10.55
2023-05-09T04:06:05.240Z,10.58
2023-05-09T04:07:07.170Z,10.60
2023-05-09T04:08:09.013Z,10.64
2023-05-09T04:09:10.928Z,10.67
2023-05-09T04:10:12.821Z,10.66
2023-05-09T04:11:14.684Z,10.67
2023-05-09T04:12:16.661Z,10.61
2023-05-09T04:13:18.531Z,10.53
2023-05-09T04:14:20.447Z,10.51
2023-05-09T04:15:22.296Z,10.54
2023-05-09T04:16:24.369Z,10.54
2023-05-09T04:17:26.520Z,10.52
2023-05-09T04:18:28.525Z,10.44
2023-05-09T04:19:30.326Z,10.48
2023-05-09T04:20:32.188Z,10.54
2023-05-09T04:21:34.254Z,10.53
2023-05-09T04:22:36.565Z,10.52
2023-05-09T04:23:39.311Z,10.47
2023-05-09T04:24:41.389Z,10.48
2023-05-09T04:25:43.382Z,10.41
2023-05-09T04:26:45.351Z,10.38
2023-05-09T04:27:47.218Z,10.37
2023-05-09T04:28:49.064Z,10.40
2023-05-09T04:29:51.006Z,10.40
2023-05-09T04:30:53.017Z,10.42
2023-05-09T04:31:55.169Z,10.39
2023-05-09T04:32:57.283Z,10.33
2023-05-09T04:33:59.223Z,10.34
2023-05-09T04:35:01.542Z,10.39
2023-05-09T04:36:03.510Z,10.41
2023-05-09T04:37:06.007Z,10.40
2023-05-09T04:38:08.085Z,10.33
2023-05-09T04:39:11.017Z,10.32
2023-05-09T04:40:13.705Z,10.37
2023-05-09T04:41:15.679Z,10.45
2023-05-09T04:42:17.547Z,10.50
2023-05-09T04:43:19.536Z,10.51
2023-05-09T04:44:22.140Z,10.50
2023-05-09T04:45:24.008Z,10.50
2023-05-09T04:46:26.362Z,10.48
2023-05-09T04:47:28.396Z,10.48
2023-05-09T04:48:30.343Z,10.49
2023-05-09T04:49:32.195Z,10.53
2023-05-09T04:50:34.068Z,10.55
2023-05-09T04:51:35.982Z,10.58
2023-05-09T04:52:37.808Z,10.60
2023-05-09T04:53:39.633Z,10.63
2023-05-09T04:54:41.487Z,10.67
2023-05-09T04:55:43.492Z,10.64
2023-05-09T04:56:45.383Z,10.66
2023-05-09T04:57:47.214Z,10.65
2023-05-09T04:58:49.070Z,10.56
2023-05-09T04:59:50.909Z,10.58
2023-05-09T05:00:53.368Z,10.64
2023-05-09T05:01:55.999Z,10.60
2023-05-09T05:02:57.864Z,10.63
2023-05-09T05:03:59.727Z,10.70
2023-05-09T05:05:18.012Z,10.73
2023-05-09T05:06:23.429Z,10.74
2023-05-09T05:07:25.290Z,10.70
2023-05-09T05:08:27.168Z,10.73
2023-05-09T05:09:29.059Z,10.79
2023-05-09T05:10:30.940Z,10.81
2023-05-09T05:11:32.860Z,10.79
2023-05-09T05:12:34.728Z,10.76
2023-05-09T05:13:36.663Z,10.79
2023-05-09T05:14:38.585Z,10.81
2023-05-09T05:15:40.996Z,10.81
2023-05-09T05:16:42.841Z,10.85
2023-05-09T05:17:44.813Z,10.91
2023-05-09T05:18:46.671Z,10.95
2023-05-09T05:19:48.578Z,10.96
2023-05-09T05:20:50.542Z,10.96
2023-05-09T05:21:52.553Z,10.96
2023-05-09T05:22:55.271Z,10.96
2023-05-09T05:23:57.087Z,10.95
2023-05-09T05:24:58.933Z,10.95
2023-05-09T05:26:01.160Z,10.99
2023-05-09T05:27:03.457Z,11.05
2023-05-09T05:28:05.462Z,11.05
2023-05-09T05:29:07.551Z,11.05
2023-05-09T05:30:09.723Z,11.05
2023-05-09T05:31:11.634Z,11.06
2023-05-09T05:32:13.579Z,11.01
2023-05-09T05:33:15.458Z,11.01
2023-05-09T05:34:17.391Z,11.02
2023-05-09T05:35:19.749Z,11.01
2023-05-09T05:36:21.605Z,11.00
2023-05-09T05:37:23.779Z,11.02
2023-05-09T05:38:25.772Z,10.99
2023-05-09T05:39:27.649Z,10.98
2023-05-09T05:40:29.491Z,11.00
2023-05-09T05:41:31.402Z,11.01
2023-05-09T05:42:33.395Z,10.98
2023-05-09T05:43:35.317Z,10.95
2023-05-09T05:44:37.160Z,10.97
2023-05-09T05:45:39.015Z,11.00
2023-05-09T05:46:41.014Z,10.97
2023-05-09T05:47:42.873Z,10.98
2023-05-09T05:48:45.546Z,10.96
2023-05-09T05:49:47.404Z,10.94
2023-05-09T05:50:49.320Z,10.95
2023-05-09T05:51:51.771Z,10.99
2023-05-09T05:52:53.604Z,11.02
2023-05-09T05:53:55.492Z,11.02
2023-05-09T05:54:57.330Z,10.97
2023-05-09T05:55:59.164Z,10.93
2023-05-09T05:57:01.134Z,10.94
2023-05-09T05:58:03.107Z,10.98
2023-05-09T05:59:05.063Z,11.04
2023-05-09T06:00:11.454Z,11.10
2023-05-09T06:01:14.129Z,11.14
2023-05-09T06:02:16.773Z,11.21
2023-05-09T06:03:18.751Z,11.26
2023-05-09T06:04:21.498Z,11.28
2023-05-09T06:05:23.365Z,11.29
2023-05-09T06:06:26.524Z,11.28
2023-05-09T06:07:28.428Z,11.27
2023-05-09T06:08:30.227Z,11.28
2023-05-09T06:09:32.170Z,11.27
2023-05-09T06:10:33.975Z,11.29
2023-05-09T06:11:35.749Z,11.26
2023-05-09T06:12:37.694Z,11.28
2023-05-09T06:13:39.527Z,11.28
2023-05-09T06:14:41.460Z,11.33
2023-05-09T06:15:43.345Z,11.35
2023-05-09T06:16:45.181Z,11.39
2023-05-09T06:17:47.144Z,11.40
2023-05-09T06:18:48.979Z,11.42
2023-05-09T06:19:50.846Z,11.44
2023-05-09T06:20:52.776Z,11.49
2023-05-09T06:21:54.782Z,11.50
2023-05-09T06:22:56.738Z,11.54
2023-05-09T06:24:09.781Z,11.59
2023-05-09T06:25:14.608Z,11.64
2023-05-09T06:26:16.641Z,11.71
2023-05-09T06:27:18.495Z,11.75
2023-05-09T06:28:20.647Z,11.79
2023-05-09T06:29:22.418Z,11.82
2023-05-09T06:30:26.739Z,11.80
2023-05-09T06:31:29.010Z,11.79
2023-05-09T06:32:30.955Z,11.84
2023-05-09T06:33:32.881Z,11.88
2023-05-09T06:34:34.823Z,11.90
2023-05-09T06:35:36.761Z,11.93
2023-05-09T06:36:38.577Z,11.94
2023-05-09T06:37:40.479Z,11.94
2023-05-09T06:38:42.372Z,11.98
2023-05-09T06:39:44.180Z,12.01
2023-05-09T06:40:46.129Z,12.04
2023-05-09T06:41:47.990Z,12.05
2023-05-09T06:42:49.858Z,12.07
2023-05-09T06:43:52.558Z,12.11
2023-05-09T06:44:54.416Z,12.17
2023-05-09T06:45:56.411Z,12.16
2023-05-09T06:46:58.259Z,12.16
2023-05-09T06:48:00.193Z,12.18
2023-05-09T06:49:02.794Z,12.14
2023-05-09T06:50:04.669Z,12.13
2023-05-09T06:51:06.582Z,12.17
2023-05-09T06:52:08.970Z,12.26
2023-05-09T06:53:10.843Z,12.30
2023-05-09T06:54:12.746Z,12.33
2023-05-09T06:55:14.986Z,12.35
2023-05-09T06:56:19.464Z,12.37
2023-05-09T06:57:21.941Z,12.40
2023-05-09T06:58:23.989Z,12.43
2023-05-09T06:59:26.051Z,12.46
2023-05-09T07:00:27.969Z,12.48
2023-05-09T07:01:30.060Z,12.41
2023-05-09T07:02:31.932Z,12.39
2023-05-09T07:03:33.738Z,12.39
2023-05-09T07:04:35.593Z,12.40
2023-05-09T07:05:37.626Z,12.44
2023-05-09T07:06:39.577Z,12.50
2023-05-09T07:07:41.424Z,12.53
2023-05-09T07:08:43.349Z,12.54
2023-05-09T07:09:45.168Z,12.56
2023-05-09T07:10:47.101Z,12.62
2023-05-09T07:11:48.980Z,12.68
2023-05-09T07:12:51.276Z,12.73
2023-05-09T07:13:53.179Z,12.76
2023-05-09T07:14:55.050Z,12.80
2023-05-09T07:15:57.530Z,12.81
2023-05-09T07:17:13.622Z,12.81
2023-05-09T07:18:21.259Z,12.85
2023-05-09T07:19:23.161Z,12.90
2023-05-09T07:20:25.948Z,12.93
2023-05-09T07:21:27.886Z,12.93
2023-05-09T07:22:31.604Z,12.90
2023-05-09T07:23:37.026Z,12.92
2023-05-09T07:24:38.968Z,12.97
2023-05-09T07:25:40.886Z,13.02
2023-05-09T07:26:42.720Z,13.10
2023-05-09T07:27:44.621Z,13.13
2023-05-09T07:28:46.537Z,13.09
2023-05-09T07:29:49.601Z,13.10
2023-05-09T07:30:51.524Z,13.12
2023-05-09T07:31:53.516Z,13.16
2023-05-09T07:32:55.468Z,13.19
2023-05-09T07:33:57.368Z,13.26
2023-05-09T07:34:59.270Z,13.31
2023-05-09T07:36:01.440Z,13.34
2023-05-09T07:37:03.367Z,13.35
2023-05-09T07:38:06.642Z,13.42
2023-05-09T07:39:08.486Z,13.47
2023-05-09T07:40:10.562Z,13.53
2023-05-09T07:41:12.533Z,13.54
2023-05-09T07:42:14.363Z,13.58
2023-05-09T07:43:16.263Z,13.63
2023-05-09T07:44:18.103Z,13.68
2023-05-09T07:45:25.257Z,13.69
2023-05-09T07:46:27.316Z,13.74
2023-05-09T07:47:29.222Z,13.78
2023-05-09T07:48:31.128Z,13.84
2023-05-09T07:49:33.051Z,13.92
2023-05-09T07:50:34.925Z,13.96
2023-05-09T07:51:36.996Z,14.02
2023-05-09T07:52:38.841Z,14.02
2023-05-09T07:53:40.969Z,14.03
2023-05-09T07:54:42.848Z,14.06
2023-05-09T07:55:50.422Z,14.13
2023-05-09T07:56:52.394Z,14.17
2023-05-09T07:57:54.238Z,14.24
2023-05-09T07:58:56.106Z,14.30
2023-05-09T07:59:58.169Z,14.32
2023-05-09T08:01:00.069Z,14.38
2023-05-09T08:02:02.219Z,14.43
2023-05-09T08:03:04.280Z,14.51
2023-05-09T08:04:07.216Z,14.55
2023-05-09T08:05:11.874Z,14.60
2023-05-09T08:06:13.783Z,14.66
2023-05-09T08:07:15.774Z,14.68
2023-05-09T08:08:17.643Z,14.71
2023-05-09T08:09:19.641Z,14.78
2023-05-09T08:10:23.565Z,14.81
2023-05-09T08:11:25.440Z,14.86
2023-05-09T08:12:27.414Z,14.91
2023-05-09T08:13:29.360Z,14.93
2023-05-09T08:14:31.224Z,14.96
2023-05-09T08:15:33.110Z,15.02
2023-05-09T08:16:35.202Z,15.07
2023-05-09T08:17:37.267Z,15.12
2023-05-09T08:18:39.061Z,15.18
2023-05-09T08:19:41.076Z,15.16
2023-05-09T08:20:43.003Z,15.20
2023-05-09T08:21:45.007Z,15.23
2023-05-09T08:22:46.964Z,15.27
2023-05-09T08:23:48.800Z,15.28
2023-05-09T08:24:50.753Z,15.32
2023-05-09T08:25:55.675Z,15.35
2023-05-09T08:26:57.564Z,15.39
2023-05-09T08:27:59.634Z,15.43
2023-05-09T08:29:01.877Z,15.45
2023-05-09T08:30:04.521Z,15.48
2023-05-09T08:31:06.481Z,15.51
2023-05-09T08:32:08.873Z,15.57
2023-05-09T08:33:10.779Z,15.62
2023-05-09T08:34:12.634Z,15.67
2023-05-09T08:35:14.860Z,15.70
2023-05-09T08:36:16.917Z,15.74
2023-05-09T08:37:18.768Z,15.82
2023-05-09T08:38:21.085Z,15.89
2023-05-09T08:39:22.892Z,15.96
2023-05-09T08:40:24.818Z,15.98
2023-05-09T08:41:30.429Z,16.04
2023-05-09T08:42:32.467Z,16.08
2023-05-09T08:43:35.902Z,16.12
2023-05-09T08:44:37.791Z,16.16
2023-05-09T08:45:48.259Z,16.19
2023-05-09T08:46:52.314Z,16.24
2023-05-09T08:47:54.998Z,16.29
2023-05-09T08:48:57.581Z,16.35
2023-05-09T08:49:59.415Z,16.39
2023-05-09T08:51:01.660Z,16.48
2023-05-09T08:52:03.856Z,16.54
2023-05-09T08:53:05.900Z,16.60
2023-05-09T08:54:08.465Z,16.64
2023-05-09T08:55:10.512Z,16.64
2023-05-09T08:56:12.349Z,16.67
2023-05-09T08:57:16.207Z,16.68
2023-05-09T08:58:20.035Z,16.72
2023-05-09T08:59:22.444Z,16.74
2023-05-09T09:00:25.802Z,16.78
2023-05-09T09:01:28.139Z,16.84
2023-05-09T09:02:30.458Z,16.88
2023-05-09T09:03:33.074Z,16.91
2023-05-09T09:04:34.993Z,16.91
2023-05-09T09:05:41.729Z,16.97
2023-05-09T09:06:44.081Z,17.01
2023-05-09T09:07:46.748Z,17.06
2023-05-09T09:08:49.282Z,17.11
2023-05-09T09:09:52.500Z,17.13
2023-05-09T09:10:54.609Z,17.14
2023-05-09T09:11:57.227Z,17.16
2023-05-09T09:13:00.574Z,17.20
2023-05-09T09:14:15.403Z,17.27
2023-05-09T09:15:18.747Z,17.34
2023-05-09T09:16:21.946Z,17.33
2023-05-09T09:17:28.519Z,17.35
2023-05-09T09:18:31.028Z,17.40
2023-05-09T09:19:34.335Z,17.48
2023-05-09T09:20:37.950Z,17.56
2023-05-09T09:21:45.055Z,17.60
2023-05-09T09:22:48.252Z,17.62
2023-05-09T09:23:51.791Z,17.68
2023-05-09T09:24:53.674Z,17.74
2023-05-09T09:26:00.078Z,17.77
2023-05-09T09:27:06.684Z,17.79
2023-05-09T09:28:08.524Z,17.88
2023-05-09T09:29:10.383Z,17.94
2023-05-09T09:30:13.312Z,17.99
2023-05-09T09:31:25.904Z,18.07
2023-05-09T09:32:33.229Z,18.10
2023-05-09T09:33:36.210Z,18.12
2023-05-09T09:34:38.491Z,18.16
2023-05-09T09:35:41.420Z,18.23
2023-05-09T09:36:43.576Z,18.28
2023-05-09T09:37:45.408Z,18.33
2023-05-09T09:38:47.244Z,18.37
2023-05-09T09:39:58.152Z,18.42
2023-05-09T09:41:00.001Z,18.49
2023-05-09T09:42:12.466Z,18.55
2023-05-09T09:43:14.763Z,18.64
2023-05-09T09:44:23.638Z,18.66
2023-05-09T09:45:25.669Z,18.72
2023-05-09T09:46:27.553Z,18.77
2023-05-09T09:47:33.161Z,18.81
2023-05-09T09:48:35.573Z,18.86
2023-05-09T09:49:37.441Z,18.92
2023-05-09T09:50:39.361Z,18.99
2023-05-09T09:51:41.765Z,19.02
2023-05-09T09:52:51.172Z,19.07
2023-05-09T09:53:53.173Z,19.11
2023-05-09T09:54:58.347Z,19.13
2023-05-09T09:56:00.209Z,19.20
2023-05-09T09:57:02.151Z,19.26
2023-05-09T09:58:04.677Z,19.26
2023-05-09T09:59:13.403Z,19.22
2023-05-09T10:00:16.724Z,19.28
2023-05-09T10:01:20.386Z,19.38
2023-05-09T10:02:24.934Z,19.48
2023-05-09T10:03:35.422Z,19.56
2023-05-09T10:04:38.091Z,19.64
2023-05-09T10:05:41.178Z,19.72
2023-05-09T10:06:51.971Z,19.74
2023-05-09T10:07:58.178Z,19.81
2023-05-09T10:09:00.035Z,19.90
2023-05-09T10:10:06.415Z,20.00
2023-05-09T10:11:09.394Z,20.07
2023-05-09T10:12:12.321Z,20.19
2023-05-09T10:13:14.422Z,20.25
2023-05-09T10:14:17.118Z,20.34
2023-05-09T10:15:20.576Z,20.41
2023-05-09T10:16:35.695Z,20.49
2023-05-09T10:17:44.318Z,20.62
2023-05-09T10:18:46.440Z,20.54
2023-05-09T10:19:50.998Z,20.48
2023-05-09T10:20:53.690Z,20.57
2023-05-09T10:21:59.645Z,20.69
2023-05-09T10:23:02.628Z,20.77
2023-05-09T10:24:05.442Z,20.89
2023-05-09T10:25:13.693Z,20.96
2023-05-09T10:26:23.636Z,21.10
2023-05-09T10:27:27.490Z,21.22
2023-05-09T10:28:32.178Z,21.32
2023-05-09T10:29:49.540Z,21.37
2023-05-09T10:30:59.617Z,21.48
2023-05-09T10:32:06.820Z,21.57
2023-05-09T10:33:09.644Z,21.69
2023-05-09T10:34:13.421Z,21.55
2023-05-09T10:35:17.520Z,21.55
2023-05-09T10:36:21.149Z,21.66
2023-05-09T10:37:23.062Z,21.73
2023-05-09T10:38:25.559Z,21.63
2023-05-09T10:39:28.261Z,21.71
2023-05-09T10:40:31.389Z,21.74
2023-05-09T10:41:33.499Z,21.86
2023-05-09T10:42:35.952Z,22.02
2023-05-09T10:43:37.972Z,22.16
2023-05-09T10:44:40.144Z,22.22
2023-05-09T10:45:42.274Z,22.35
2023-05-09T10:46:45.402Z,22.48
2023-05-09T10:47:50.097Z,22.25
2023-05-09T10:48:52.830Z,22.18
2023-05-09T10:49:55.169Z,22.06
2023-05-09T10:50:57.661Z,22.17
2023-05-09T10:51:59.622Z,22.17
2023-05-09T10:53:04.230Z,22.16
2023-05-09T10:54:13.990Z,22.35
2023-05-09T10:55:16.121Z,22.55
2023-05-09T10:56:25.268Z,22.72
2023-05-09T10:57:28.430Z,22.76
2023-05-09T10:58:33.477Z,22.89
2023-05-09T10:59:37.638Z,22.90
2023-05-09T11:00:41.848Z,23.04
2023-05-09T11:01:43.834Z,23.15
2023-05-09T11:03:06.020Z,23.29
2023-05-09T11:04:12.035Z,23.42
2023-05-09T11:05:18.178Z,23.54
2023-05-09T11:06:38.473Z,23.68
2023-05-09T11:07:40.569Z,23.75
2023-05-09T11:08:42.621Z,23.81
2023-05-09T11:09:44.513Z,23.83
2023-05-09T11:10:46.558Z,23.85
2023-05-09T11:11:52.565Z,23.89
2023-05-09T11:12:59.209Z,23.78
2023-05-09T11:14:01.181Z,24.00
2023-05-09T11:15:06.922Z,23.92
2023-05-09T11:16:09.445Z,23.64
2023-05-09T11:17:32.936Z,23.79
2023-05-09T11:18:34.792Z,24.02
2023-05-09T11:19:37.350Z,24.17
2023-05-09T11:20:49.581Z,24.25
2023-05-09T11:22:02.659Z,24.04
2023-05-09T11:23:05.456Z,24.28
2023-05-09T11:24:17.354Z,24.36
2023-05-09T11:25:25.409Z,24.51
2023-05-09T11:26:30.856Z,24.62
2023-05-09T11:27:37.588Z,24.25
2023-05-09T11:28:39.521Z,24.21
2023-05-09T11:29:46.181Z,24.22
2023-05-09T11:30:48.129Z,24.31
2023-05-09T11:32:06.935Z,24.41
2023-05-09T11:33:25.151Z,24.50
2023-05-09T11:34:26.990Z,24.70
2023-05-09T11:35:28.903Z,24.69
2023-05-09T11:36:32.299Z,24.77
2023-05-09T11:37:34.172Z,25.00
2023-05-09T11:38:43.338Z,24.93
2023-05-09T11:39:58.903Z,25.05
2023-05-09T11:41:01.147Z,24.90
2023-05-09T11:42:04.441Z,24.70
2023-05-09T11:43:07.489Z,24.84
2023-05-09T11:44:19.188Z,24.93
2023-05-09T11:45:21.856Z,25.05
2023-05-09T11:46:23.775Z,25.23
2023-05-09T11:47:26.128Z,25.23
2023-05-09T11:48:28.065Z,25.35
2023-05-09T11:49:30.073Z,25.10
2023-05-09T11:50:32.076Z,25.30
2023-05-09T11:51:36.765Z,25.45
2023-05-09T11:52:39.099Z,25.61
2023-05-09T11:53:47.305Z,25.73
2023-05-09T11:54:49.934Z,25.83
2023-05-09T11:55:51.933Z,25.89
2023-05-09T11:56:53.822Z,25.93
2023-05-09T11:57:55.945Z,26.16
2023-05-09T11:58:58.921Z,26.21
2023-05-09T12:00:01.587Z,26.30
2023-05-09T12:01:03.462Z,26.19
2023-05-09T12:02:06.537Z,25.82
2023-05-09T12:03:08.492Z,25.62
2023-05-09T12:04:10.603Z,25.83
2023-05-09T12:05:18.001Z,25.99
2023-05-09T12:06:20.370Z,25.94
2023-05-09T12:07:22.241Z,25.77
2023-05-09T12:08:28.908Z,25.90
2023-05-09T12:09:34.262Z,25.85
2023-05-09T12:10:39.729Z,25.86
2023-05-09T12:11:51.149Z,25.73
2023-05-09T12:12:55.857Z,25.93
2023-05-09T12:13:57.815Z,25.95
2023-05-09T12:15:02.382Z,26.17
2023-05-09T12:16:04.496Z,25.86
2023-05-09T12:17:10.139Z,25.80
2023-05-09T12:18:12.111Z,25.80
2023-05-09T12:19:14.632Z,25.83
2023-05-09T12:20:16.568Z,25.82
2023-05-09T12:21:19.451Z,25.79
2023-05-09T12:22:22.149Z,25.88
2023-05-09T12:23:24.055Z,25.82
2023-05-09T12:24:28.968Z,25.70
2023-05-09T12:25:30.869Z,25.85
2023-05-09T12:26:34.006Z,26.01
2023-05-09T12:27:36.530Z,25.91
2023-05-09T12:28:38.855Z,25.88
2023-05-09T12:29:42.495Z,25.89
2023-05-09T12:30:44.725Z,26.05
2023-05-09T12:31:46.780Z,26.33
2023-05-09T12:32:48.776Z,26.52
2023-05-09T12:33:50.778Z,26.50
2023-05-09T12:34:52.685Z,26.63
2023-05-09T12:36:11.492Z,26.80
2023-05-09T12:37:18.276Z,26.72
2023-05-09T12:38:23.580Z,26.41
2023-05-09T12:39:26.914Z,26.53
2023-05-09T12:40:28.767Z,26.37
2023-05-09T12:41:39.199Z,26.48
2023-05-09T12:42:46.411Z,26.49
2023-05-09T12:43:49.876Z,26.24
2023-05-09T12:44:51.817Z,26.49
2023-05-09T12:45:53.728Z,26.78
2023-05-09T12:47:00.283Z,26.92
2023-05-09T12:48:02.872Z,27.08
2023-05-09T12:49:05.642Z,27.05
2023-05-09T12:50:08.446Z,26.94
2023-05-09T12:51:10.331Z,26.74
2023-05-09T12:52:17.832Z,26.71
2023-05-09T12:53:26.627Z,26.67
2023-05-09T12:54:29.896Z,26.70
2023-05-09T12:55:33.109Z,26.86
2023-05-09T12:56:35.979Z,27.08
2023-05-09T12:57:39.195Z,26.91
2023-05-09T12:58:41.700Z,27.06
2023-05-09T12:59:44.079Z,27.18
2023-05-09T13:00:46.599Z,27.18
2023-05-09T13:01:51.770Z,27.21
2023-05-09T13:02:53.887Z,27.15
2023-05-09T13:04:06.227Z,27.41
2023-05-09T13:05:12.270Z,27.52
2023-05-09T13:06:14.592Z,27.66
2023-05-09T13:07:16.483Z,27.83
2023-05-09T13:08:21.317Z,27.90
2023-05-09T13:09:23.824Z,27.84
2023-05-09T13:10:30.712Z,27.82
2023-05-09T13:11:32.678Z,27.78
2023-05-09T13:12:35.173Z,27.90
2023-05-09T13:13:37.183Z,27.51
2023-05-09T13:14:39.050Z,27.48
2023-05-09T13:15:41.008Z,27.66
2023-05-09T13:16:43.666Z,27.74
2023-05-09T13:17:47.613Z,27.69
2023-05-09T13:18:49.511Z,27.76
2023-05-09T13:19:52.063Z,27.85
2023-05-09T13:20:53.896Z,27.92
2023-05-09T13:21:55.840Z,28.04
2023-05-09T13:22:58.010Z,27.81
2023-05-09T13:23:59.920Z,27.84
2023-05-09T13:25:02.125Z,28.03
2023-05-09T13:26:04.033Z,28.12
2023-05-09T13:27:06.104Z,28.15
2023-05-09T13:28:09.010Z,28.20
2023-05-09T13:29:10.901Z,27.70
2023-05-09T13:30:15.138Z,27.69
2023-05-09T13:31:18.334Z,27.71
2023-05-09T13:32:20.344Z,27.52
2023-05-09T13:33:26.342Z,27.32
2023-05-09T13:34:28.848Z,27.07
2023-05-09T13:35:30.656Z,27.36